createdAt,value
2018-04-15T00:01:10.994Z,95.62
2018-04-15T00:03:39.676Z,95.62
2018-04-15T00:06:08.067Z,95.69
2018-04-15T00:08:36.714Z,95.74
2018-04-15T00:11:05.706Z,95.72
2018-04-15T00:13:35.193Z,95.78
2018-04-15T00:16:04.712Z,95.83
2018-04-15T00:18:35.095Z,95.87
2018-04-15T00:21:03.377Z,95.90
2018-04-15T00:23:32.655Z,95.91
2018-04-15T00:26:01.634Z,95.89
2018-04-15T00:28:31.935Z,95.85
2018-04-15T00:31:02.215Z,95.83
2018-04-15T00:33:31.290Z,95.82
2018-04-15T00:36:00.994Z,95.79
2018-04-15T00:38:29.596Z,95.77
2018-04-15T00:40:58.595Z,95.72
2018-04-15T00:43:27.094Z,95.70
2018-04-15T00:45:55.554Z,95.64
2018-04-15T00:48:23.966Z,95.56
2018-04-15T00:50:52.262Z,95.49
2018-04-15T00:53:21.983Z,95.56
2018-04-15T00:55:51.267Z,95.63
2018-04-15T00:58:20.322Z,95.57
2018-04-15T01:00:48.590Z,95.52
2018-04-15T01:03:16.962Z,95.52
2018-04-15T01:05:47.597Z,95.36
2018-04-15T01:08:15.866Z,95.29
2018-04-15T01:10:44.383Z,95.28
2018-04-15T01:13:13.915Z,95.36
2018-04-15T01:15:42.318Z,95.38
2018-04-15T01:18:12.231Z,95.54
2018-04-15T01:20:41.300Z,95.62
2018-04-15T01:23:10.374Z,95.61
2018-04-15T01:25:38.659Z,95.65
2018-04-15T01:28:06.923Z,95.63
2018-04-15T01:30:35.304Z,95.58
2018-04-15T01:33:03.874Z,95.54
2018-04-15T01:35:32.255Z,95.58
2018-04-15T01:38:00.532Z,95.58
2018-04-15T01:40:29.146Z,95.53
2018-04-15T01:42:57.698Z,95.49
2018-04-15T01:45:26.066Z,95.50
2018-04-15T01:47:54.353Z,95.55
2018-04-15T01:50:22.642Z,95.55
2018-04-15T01:52:50.920Z,95.58
2018-04-15T01:55:21.319Z,95.47
2018-04-15T01:57:49.608Z,95.44
2018-04-15T02:00:18.475Z,95.46
2018-04-15T02:02:47.723Z,95.47
2018-04-15T02:05:16.950Z,95.58
2018-04-15T02:07:45.639Z,95.68
2018-04-15T02:10:14.418Z,95.70
2018-04-15T02:12:44.048Z,95.59
2018-04-15T02:15:12.364Z,95.62
2018-04-15T02:17:40.668Z,95.65
2018-04-15T02:20:09.463Z,95.63
2018-04-15T02:22:38.051Z,95.73
2018-04-15T02:25:06.430Z,95.76
2018-04-15T02:27:34.838Z,95.78
2018-04-15T02:30:03.345Z,95.68
2018-04-15T02:32:32.487Z,95.58
2018-04-15T02:35:00.862Z,95.48
2018-04-15T02:37:29.142Z,95.48
2018-04-15T02:39:58.871Z,95.57
2018-04-15T02:42:27.435Z,95.62
2018-04-15T02:44:56.459Z,95.71
2018-04-15T02:47:24.842Z,95.87
2018-04-15T02:49:53.107Z,95.86
2018-04-15T02:52:21.859Z,95.82
2018-04-15T02:54:50.262Z,95.71
2018-04-15T02:57:19.053Z,95.59
2018-04-15T02:59:47.362Z,95.37
2018-04-15T03:02:15.785Z,95.56
2018-04-15T03:04:44.094Z,95.69
2018-04-15T03:07:12.477Z,95.70
2018-04-15T03:09:40.859Z,95.66
2018-04-15T03:12:09.991Z,95.72
2018-04-15T03:14:39.368Z,95.58
2018-04-15T03:17:09.202Z,95.30
2018-04-15T03:19:38.586Z,95.17
2018-04-15T03:22:06.854Z,95.37
2018-04-15T03:24:35.175Z,95.55
2018-04-15T03:27:04.232Z,95.59
2018-04-15T03:29:32.537Z,95.57
2018-04-15T03:32:00.830Z,95.58
2018-04-15T03:34:30.070Z,95.56
2018-04-15T03:37:00.073Z,95.38
2018-04-15T03:39:28.348Z,95.19
2018-04-15T03:41:56.650Z,95.19
2018-04-15T03:44:24.966Z,95.44
2018-04-15T03:46:53.738Z,95.44
2018-04-15T03:49:25.809Z,95.59
2018-04-15T03:51:54.362Z,95.60
2018-04-15T03:54:23.401Z,95.50
2018-04-15T03:56:52.249Z,95.50
2018-04-15T03:59:20.885Z,95.52
2018-04-15T04:01:50.530Z,95.65
2018-04-15T04:04:19.053Z,95.75
2018-04-15T04:06:49.069Z,95.79
2018-04-15T04:09:17.556Z,95.67
2018-04-15T04:11:47.317Z,95.64
2018-04-15T04:14:15.952Z,95.54
2018-04-15T04:16:44.233Z,95.36
2018-04-15T04:22:52.712Z,95.55
2018-04-15T04:25:30.234Z,95.59
2018-04-15T04:27:58.719Z,95.54
2018-04-15T04:30:27.814Z,95.39
2018-04-15T04:32:56.082Z,95.20
2018-04-15T04:35:25.125Z,94.88
2018-04-15T04:37:53.675Z,94.73
2018-04-15T04:40:22.799Z,94.64
2018-04-15T04:42:51.147Z,94.80
2018-04-15T04:45:19.527Z,95.28
2018-04-15T04:47:47.822Z,95.64
2018-04-15T04:50:17.146Z,95.65
2018-04-15T04:52:45.495Z,95.47
2018-04-15T04:55:14.575Z,95.29
2018-04-15T04:57:44.232Z,95.14
2018-04-15T05:00:12.883Z,95.31
2018-04-15T05:02:42.110Z,95.42
2018-04-15T05:05:11.019Z,95.37
2018-04-15T05:07:40.545Z,95.46
2018-04-15T05:10:11.074Z,95.58
2018-04-15T05:12:40.503Z,95.67
2018-04-15T05:15:08.776Z,95.88
2018-04-15T05:17:37.043Z,96.07
2018-04-15T05:20:05.678Z,96.06
2018-04-15T05:22:34.022Z,96.10
2018-04-15T05:25:02.336Z,96.07
2018-04-15T05:27:30.630Z,96.10
2018-04-15T05:29:59.027Z,96.13
2018-04-15T05:32:29.296Z,96.09
2018-04-15T05:34:57.607Z,96.18
2018-04-15T05:37:25.891Z,96.17
2018-04-15T05:39:54.383Z,96.20
2018-04-15T05:42:23.202Z,96.24
2018-04-15T05:44:52.108Z,96.24
2018-04-15T05:47:20.714Z,96.23
2018-04-15T05:49:49.430Z,96.20
2018-04-15T05:52:17.757Z,96.14
2018-04-15T05:54:46.175Z,95.94
2018-04-15T05:57:14.450Z,95.96
2018-04-15T05:59:43.052Z,95.95
2018-04-15T06:02:11.365Z,96.02
2018-04-15T06:04:40.158Z,96.02
2018-04-15T06:07:09.002Z,95.86
2018-04-15T06:09:37.550Z,95.83
2018-04-15T06:12:06.564Z,95.85
2018-04-15T06:14:35.218Z,95.92
2018-04-15T06:17:04.554Z,95.94
2018-04-15T06:19:33.275Z,95.95
2018-04-15T06:22:01.562Z,95.85
2018-04-15T06:24:30.820Z,95.62
2018-04-15T06:26:59.120Z,95.52
2018-04-15T06:29:28.168Z,95.66
2018-04-15T06:31:56.550Z,95.50
2018-04-15T06:34:25.782Z,95.53
2018-04-15T06:36:54.885Z,94.74
2018-04-15T06:39:23.750Z,94.98
2018-04-15T06:41:52.902Z,94.91
2018-04-15T06:44:22.862Z,94.84
2018-04-15T06:46:52.390Z,95.06
2018-04-15T06:49:20.684Z,95.01
2018-04-15T06:51:48.960Z,94.91
2018-04-15T06:54:17.865Z,94.75
2018-04-15T06:56:46.150Z,94.75
2018-04-15T06:59:15.298Z,94.50
2018-04-15T07:01:44.435Z,94.31
2018-04-15T07:04:13.024Z,93.97
2018-04-15T07:06:42.110Z,93.86
2018-04-15T07:09:10.802Z,93.63
2018-04-15T07:11:39.885Z,92.98
2018-04-15T07:14:08.159Z,92.86
2018-04-15T07:16:36.482Z,92.29
2018-04-15T07:19:05.736Z,92.45
2018-04-15T07:21:34.050Z,92.49
2018-04-15T07:24:03.083Z,92.59
2018-04-15T07:26:33.549Z,92.04
2018-04-15T07:29:02.346Z,91.70
2018-04-15T07:31:30.663Z,91.02
2018-04-15T07:33:59.268Z,91.30
2018-04-15T07:36:28.408Z,91.58
2018-04-15T07:38:56.675Z,91.26
2018-04-15T07:41:24.970Z,90.98
2018-04-15T07:43:54.567Z,91.27
2018-04-15T07:46:23.357Z,91.32
2018-04-15T07:48:56.547Z,91.10
2018-04-15T07:51:24.899Z,91.17
2018-04-15T07:53:53.491Z,91.25
2018-04-15T07:56:22.739Z,91.41
2018-04-15T07:58:52.084Z,91.61
2018-04-15T08:01:21.175Z,91.71
2018-04-15T08:03:49.462Z,91.54
2018-04-15T08:06:17.754Z,91.40
2018-04-15T08:08:46.771Z,91.58
2018-04-15T08:11:15.075Z,91.71
2018-04-15T08:13:44.021Z,91.58
2018-04-15T08:16:12.314Z,91.56
2018-04-15T08:18:40.651Z,91.49
2018-04-15T08:21:09.740Z,91.64
2018-04-15T08:23:38.014Z,92.44
2018-04-15T08:26:06.411Z,92.46
2018-04-15T08:28:34.723Z,92.00
2018-04-15T08:31:03.032Z,92.53
2018-04-15T08:33:32.075Z,92.63
2018-04-15T08:36:00.386Z,92.64
2018-04-15T08:38:28.787Z,92.86
2018-04-15T08:40:57.314Z,92.73
2018-04-15T08:43:26.000Z,92.49
2018-04-15T08:45:54.321Z,92.67
2018-04-15T08:48:23.410Z,92.23
2018-04-15T08:50:51.706Z,91.68
2018-04-15T08:53:22.375Z,91.79
2018-04-15T08:55:52.227Z,91.83
2018-04-15T08:58:20.501Z,92.06
2018-04-15T09:00:49.256Z,92.00
2018-04-15T09:03:18.299Z,92.08
2018-04-15T09:05:46.578Z,92.23
2018-04-15T09:08:15.035Z,92.14
2018-04-15T09:10:45.730Z,91.58
2018-04-15T09:13:14.015Z,91.23
2018-04-15T09:15:42.387Z,91.39
2018-04-15T09:18:10.720Z,91.25
2018-04-15T09:20:38.961Z,91.30
2018-04-15T09:23:07.267Z,91.99
2018-04-15T09:25:36.605Z,91.95
2018-04-15T09:28:05.762Z,91.69
2018-04-15T09:30:39.542Z,91.30
2018-04-15T09:33:08.301Z,90.85
2018-04-15T09:35:38.266Z,91.23
2018-04-15T09:38:07.490Z,92.29
2018-04-15T09:40:35.888Z,91.75
2018-04-15T09:43:04.954Z,91.73
2018-04-15T09:45:33.335Z,91.98
2018-04-15T09:48:01.659Z,92.10
2018-04-15T09:50:30.728Z,92.26
2018-04-15T09:52:59.067Z,92.32
2018-04-15T09:55:28.184Z,92.32
2018-04-15T09:57:56.474Z,91.85
2018-04-15T10:00:24.774Z,91.75
2018-04-15T10:02:53.915Z,91.59
2018-04-15T10:05:22.241Z,91.92
2018-04-15T10:07:52.062Z,91.77
2018-04-15T10:10:21.396Z,90.80
2018-04-15T10:12:49.691Z,91.62
2018-04-15T10:15:18.691Z,91.17
2018-04-15T10:17:47.534Z,91.55
2018-04-15T10:20:21.114Z,91.37
2018-04-15T10:22:49.682Z,91.55
2018-04-15T10:25:17.967Z,92.30
2018-04-15T10:27:46.844Z,91.75
2018-04-15T10:30:15.850Z,91.87
2018-04-15T10:32:44.232Z,92.14
2018-04-15T10:35:12.606Z,91.45
2018-04-15T10:37:41.616Z,92.12
2018-04-15T10:40:09.901Z,91.29
2018-04-15T10:42:38.233Z,90.87
2018-04-15T10:45:06.626Z,90.38
2018-04-15T10:47:35.239Z,90.35
2018-04-15T10:50:03.592Z,89.39
2018-04-15T10:52:31.882Z,90.30
2018-04-15T10:55:00.378Z,90.17
2018-04-15T10:57:29.552Z,89.44
2018-04-15T10:59:58.075Z,90.53
2018-04-15T11:02:27.958Z,91.39
2018-04-15T11:04:57.669Z,90.06
2018-04-15T11:07:26.672Z,90.71
2018-04-15T11:09:55.004Z,90.78
2018-04-15T11:12:23.310Z,89.83
2018-04-15T11:14:51.699Z,88.95
2018-04-15T11:17:20.168Z,89.35
2018-04-15T11:19:48.451Z,89.09
2018-04-15T11:22:17.026Z,89.65
2018-04-15T11:24:46.182Z,89.88
2018-04-15T11:27:15.739Z,91.07
2018-04-15T11:29:44.069Z,90.28
2018-04-15T11:32:13.107Z,89.32
2018-04-15T11:34:41.482Z,89.87
2018-04-15T11:37:09.770Z,89.82
2018-04-15T11:39:38.060Z,88.66
2018-04-15T11:42:06.452Z,87.48
2018-04-15T11:44:34.703Z,87.35
2018-04-15T11:47:02.984Z,87.17
2018-04-15T11:49:31.287Z,87.53
2018-04-15T11:51:59.919Z,87.87
2018-04-15T11:54:28.210Z,88.55
2018-04-15T11:56:56.720Z,86.03
2018-04-15T11:59:25.010Z,87.98
2018-04-15T12:01:53.590Z,88.93
2018-04-15T12:04:21.893Z,88.48
2018-04-15T12:06:50.946Z,86.89
2018-04-15T12:09:19.282Z,86.12
2018-04-15T12:11:47.921Z,87.12
2018-04-15T12:14:16.574Z,86.53
2018-04-15T12:16:44.895Z,85.43
2018-04-15T12:19:13.391Z,85.16
2018-04-15T12:21:42.331Z,84.59
2018-04-15T12:24:10.725Z,86.06
2018-04-15T12:26:39.015Z,84.91
2018-04-15T12:29:07.830Z,85.62
2018-04-15T12:31:36.131Z,86.78
2018-04-15T12:34:05.557Z,87.88
2018-04-15T12:36:33.839Z,86.04
2018-04-15T12:39:02.171Z,86.45
2018-04-15T12:41:30.959Z,86.57
2018-04-15T12:44:00.056Z,86.97
2018-04-15T12:46:28.897Z,87.05
2018-04-15T12:48:57.184Z,86.91
2018-04-15T12:51:25.806Z,86.63
2018-04-15T12:53:54.099Z,87.30
2018-04-15T12:56:23.179Z,87.66
2018-04-15T12:58:51.527Z,87.91
2018-04-15T13:01:19.814Z,89.47
2018-04-15T13:03:48.179Z,89.32
2018-04-15T13:06:16.663Z,90.08
2018-04-15T13:08:45.772Z,89.33
2018-04-15T13:11:15.809Z,88.53
2018-04-15T13:13:45.238Z,87.68
2018-04-15T13:16:15.370Z,89.13
2018-04-15T13:18:44.436Z,88.04
2018-04-15T13:21:12.707Z,87.05
2018-04-15T13:23:41.093Z,88.96
2018-04-15T13:26:10.551Z,89.93
2018-04-15T13:28:38.859Z,89.34
2018-04-15T13:31:07.136Z,88.48
2018-04-15T13:33:35.607Z,89.58
2018-04-15T13:36:03.903Z,89.04
2018-04-15T13:38:32.700Z,89.55
2018-04-15T13:41:01.064Z,89.71
2018-04-15T13:43:29.450Z,89.11
2018-04-15T13:45:58.207Z,88.12
2018-04-15T13:48:26.510Z,88.33
2018-04-15T13:50:54.795Z,89.14
2018-04-15T13:53:23.158Z,89.84
2018-04-15T13:55:52.174Z,89.54
2018-04-15T13:58:20.467Z,88.04
2018-04-15T14:00:48.742Z,88.79
2018-04-15T14:03:17.151Z,88.62
2018-04-15T14:05:45.434Z,87.76
2018-04-15T14:08:13.806Z,89.19
2018-04-15T14:10:43.046Z,87.79
2018-04-15T14:13:12.125Z,87.45
2018-04-15T14:15:40.419Z,86.80
2018-04-15T14:18:08.738Z,87.02
2018-04-15T14:20:37.035Z,87.11
2018-04-15T14:23:06.098Z,84.98
2018-04-15T14:25:34.763Z,86.94
2018-04-15T14:28:03.038Z,86.17
2018-04-15T14:30:32.152Z,84.82
2018-04-15T14:33:00.639Z,85.92
2018-04-15T14:35:28.947Z,87.05
2018-04-15T14:37:57.235Z,87.37
2018-04-15T14:40:27.153Z,88.52
2018-04-15T14:42:55.734Z,87.60
2018-04-15T14:45:25.311Z,86.50
2018-04-15T14:47:55.081Z,86.75
2018-04-15T14:50:23.362Z,86.60
2018-04-15T14:52:53.168Z,86.06
2018-04-15T14:55:21.454Z,86.33
2018-04-15T14:57:50.996Z,85.46
2018-04-15T15:00:19.491Z,86.82
2018-04-15T15:02:47.847Z,85.71
2018-04-15T15:05:16.747Z,85.01
2018-04-15T15:07:45.122Z,85.16
2018-04-15T15:10:13.703Z,86.79
2018-04-15T15:12:41.983Z,87.13
2018-04-15T15:15:10.306Z,86.79
2018-04-15T15:17:39.473Z,85.58
2018-04-15T15:20:08.008Z,85.26
2018-04-15T15:22:36.336Z,85.43
2018-04-15T15:25:05.535Z,85.68
2018-04-15T15:27:33.808Z,86.25
2018-04-15T15:30:02.599Z,86.02
2018-04-15T15:32:30.935Z,86.61
2018-04-15T15:34:59.218Z,86.90
2018-04-15T15:37:28.939Z,87.15
2018-04-15T15:39:57.244Z,87.16
2018-04-15T15:42:25.548Z,87.65
2018-04-15T15:44:54.902Z,86.43
2018-04-15T15:47:23.975Z,86.60
2018-04-15T15:49:52.858Z,88.00
2018-04-15T15:52:21.140Z,88.17
2018-04-15T15:54:49.429Z,88.12
2018-04-15T15:57:17.743Z,87.47
2018-04-15T15:59:46.018Z,87.09
2018-04-15T16:02:14.400Z,87.59
2018-04-15T16:04:42.779Z,87.77
2018-04-15T16:07:11.061Z,87.15
2018-04-15T16:09:39.400Z,87.08
2018-04-15T16:12:08.007Z,87.89
2018-04-15T16:14:36.320Z,88.41
2018-04-15T16:17:04.975Z,87.67
2018-04-15T16:19:33.275Z,86.91
2018-04-15T16:22:02.362Z,88.46
2018-04-15T16:24:30.683Z,88.46
2018-04-15T16:27:00.173Z,87.47
2018-04-15T16:29:30.166Z,87.92
2018-04-15T16:31:59.458Z,88.80
2018-04-15T16:34:27.751Z,88.08
2018-04-15T16:36:56.077Z,87.54
2018-04-15T16:39:25.933Z,87.29
2018-04-15T16:41:54.851Z,87.32
2018-04-15T16:44:24.153Z,88.04
2018-04-15T16:46:54.346Z,87.99
2018-04-15T16:49:22.976Z,89.08
2018-04-15T16:51:52.305Z,87.76
2018-04-15T16:54:20.615Z,87.93
2018-04-15T16:56:48.899Z,87.63
2018-04-15T16:59:17.545Z,87.86
2018-04-15T17:01:46.632Z,87.47
2018-04-15T17:04:14.937Z,87.91
2018-04-15T17:06:43.668Z,86.69
2018-04-15T17:09:11.972Z,87.41
2018-04-15T17:11:40.274Z,86.71
2018-04-15T17:14:08.584Z,87.85
2018-04-15T17:16:37.912Z,87.35
2018-04-15T17:19:07.834Z,88.44
2018-04-15T17:21:36.885Z,86.79
2018-04-15T17:24:05.333Z,87.60
2018-04-15T17:26:36.688Z,87.97
2018-04-15T17:29:05.092Z,88.30
2018-04-15T17:31:33.531Z,88.84
2018-04-15T17:34:02.899Z,88.80
2018-04-15T17:36:31.227Z,88.82
2018-04-15T17:38:59.515Z,88.96
2018-04-15T17:41:27.935Z,89.23
2018-04-15T17:43:57.280Z,90.20
2018-04-15T17:46:25.570Z,89.29
2018-04-15T17:48:54.278Z,89.27
2018-04-15T17:51:22.589Z,89.27
2018-04-15T17:53:50.936Z,89.54
2018-04-15T17:56:20.207Z,89.41
2018-04-15T17:58:48.517Z,89.30
2018-04-15T18:01:16.874Z,89.48
2018-04-15T18:03:45.197Z,89.78
2018-04-15T18:06:14.259Z,89.25
2018-04-15T18:08:42.870Z,89.86
2018-04-15T18:11:11.201Z,90.05
2018-04-15T18:13:40.683Z,90.31
2018-04-15T18:16:11.246Z,90.33
2018-04-15T18:18:39.777Z,90.44
2018-04-15T18:21:09.560Z,90.49
2018-04-15T18:23:38.131Z,90.23
2018-04-15T18:26:06.431Z,90.44
2018-04-15T18:28:34.731Z,90.88
2018-04-15T18:31:04.857Z,90.59
2018-04-15T18:33:33.940Z,90.42
2018-04-15T18:36:02.240Z,90.39
2018-04-15T18:38:31.682Z,90.55
2018-04-15T18:41:00.104Z,90.74
2018-04-15T18:43:28.423Z,90.87
2018-04-15T18:45:56.830Z,91.08
2018-04-15T18:48:25.121Z,91.14
2018-04-15T18:50:53.475Z,91.27
2018-04-15T18:53:21.764Z,91.29
2018-04-15T18:55:50.050Z,91.17
2018-04-15T18:58:18.425Z,91.13
2018-04-15T19:00:47.022Z,91.25
2018-04-15T19:03:15.900Z,91.33
2018-04-15T19:05:44.212Z,91.52
2018-04-15T19:08:12.784Z,91.68
2018-04-15T19:10:41.235Z,91.58
2018-04-15T19:13:09.533Z,91.48
2018-04-15T19:15:38.576Z,91.45
2018-04-15T19:18:08.391Z,90.85
2018-04-15T19:20:38.223Z,91.21
2018-04-15T19:23:07.227Z,90.96
2018-04-15T19:25:35.515Z,91.36
2018-04-15T19:28:06.840Z,91.37
2018-04-15T19:30:35.893Z,91.38
2018-04-15T19:33:04.192Z,91.31
2018-04-15T19:35:32.524Z,91.29
2018-04-15T19:38:00.898Z,91.31
2018-04-15T19:40:29.256Z,91.27
2018-04-15T19:42:59.523Z,91.12
2018-04-15T19:45:27.811Z,91.07
2018-04-15T19:47:56.679Z,91.13
2018-04-15T19:50:25.020Z,91.32
2018-04-15T19:52:54.584Z,91.26
2018-04-15T19:55:22.878Z,91.09
2018-04-15T19:57:51.463Z,90.99
2018-04-15T20:00:19.853Z,91.16
2018-04-15T20:02:48.170Z,91.33
2018-04-15T20:05:16.689Z,91.49
2018-04-15T20:07:45.619Z,91.59
2018-04-15T20:10:14.678Z,91.55
2018-04-15T20:12:44.110Z,91.38
2018-04-15T20:15:15.288Z,91.29
2018-04-15T20:17:44.055Z,91.30
2018-04-15T20:20:13.865Z,90.89
2018-04-15T20:22:43.267Z,91.24
2018-04-15T20:25:13.344Z,91.53
2018-04-15T20:27:42.490Z,92.22
2018-04-15T20:30:12.050Z,93.25
2018-04-15T20:32:40.432Z,93.33
2018-04-15T20:35:08.722Z,93.53
2018-04-15T20:37:37.083Z,93.45
2018-04-15T20:40:06.279Z,93.27
2018-04-15T20:42:34.683Z,92.93
2018-04-15T20:45:02.973Z,93.11
2018-04-15T20:47:31.541Z,93.35
2018-04-15T20:49:59.820Z,93.21
2018-04-15T20:52:28.877Z,93.01
2018-04-15T20:54:57.531Z,92.51
2018-04-15T20:57:28.343Z,92.59
2018-04-15T20:59:56.634Z,92.82
2018-04-15T21:02:25.784Z,92.95
2018-04-15T21:04:54.315Z,92.20
2018-04-15T21:07:22.619Z,92.48
2018-04-15T21:09:51.667Z,93.09
2018-04-15T21:12:20.701Z,93.68
2018-04-15T21:14:49.759Z,93.88
2018-04-15T21:17:18.855Z,94.40
2018-04-15T21:19:48.184Z,94.66
2018-04-15T21:22:16.431Z,94.50
2018-04-15T21:24:44.708Z,94.50
2018-04-15T21:27:13.184Z,94.39
2018-04-15T21:29:41.459Z,94.33
2018-04-15T21:32:10.431Z,94.32
2018-04-15T21:34:39.371Z,94.40
2018-04-15T21:37:09.187Z,94.35
2018-04-15T21:39:38.518Z,94.37
2018-04-15T21:42:07.567Z,93.31
2018-04-15T21:44:36.739Z,93.32
2018-04-15T21:47:05.143Z,93.72
2018-04-15T21:49:33.634Z,93.94
2018-04-15T21:52:02.002Z,94.19
2018-04-15T21:54:30.602Z,94.57
2018-04-15T21:56:59.264Z,94.83
2018-04-15T21:59:28.570Z,94.94
2018-04-15T22:02:00.024Z,94.55
2018-04-15T22:04:28.519Z,94.59
2018-04-15T22:06:57.679Z,94.65
2018-04-15T22:09:26.826Z,94.79
2018-04-15T22:12:13.242Z,95.16
2018-04-15T22:14:41.674Z,95.57
2018-04-15T22:17:12.936Z,95.34
2018-04-15T22:19:41.436Z,95.29
2018-04-15T22:22:09.798Z,95.33
2018-04-15T22:24:38.070Z,95.42
2018-04-15T22:27:06.380Z,95.46
2018-04-15T22:29:34.639Z,95.51
2018-04-15T22:32:04.390Z,95.49
2018-04-15T22:34:32.626Z,95.47
2018-04-15T22:37:00.898Z,95.62
2018-04-15T22:39:29.174Z,95.64
2018-04-15T22:41:57.651Z,95.59
2018-04-15T22:44:26.369Z,95.41
2018-04-15T22:46:55.343Z,95.56
2018-04-15T22:49:23.672Z,95.81
2018-04-15T22:51:52.715Z,95.81
2018-04-15T22:54:21.895Z,94.43
2018-04-15T22:56:50.503Z,94.24
2018-04-15T22:59:18.899Z,94.26
2018-04-15T23:01:47.194Z,94.83
2018-04-15T23:04:16.279Z,95.29
2018-04-15T23:06:45.174Z,95.25
2018-04-15T23:09:13.439Z,95.38
2018-04-15T23:11:41.859Z,95.92
2018-04-15T23:14:11.823Z,96.17
2018-04-15T23:16:40.122Z,96.14
2018-04-15T23:19:08.464Z,96.17
2018-04-15T23:21:37.409Z,96.06
2018-04-15T23:24:06.490Z,96.11
2018-04-15T23:26:35.610Z,96.12
2018-04-15T23:29:05.170Z,96.15
2018-04-15T23:31:34.458Z,96.16
2018-04-15T23:34:02.754Z,96.21
2018-04-15T23:36:31.126Z,96.24
2018-04-15T23:38:59.571Z,96.19
2018-04-15T23:41:28.719Z,96.22
2018-04-15T23:43:57.009Z,96.26
2018-04-15T23:46:26.103Z,96.21
2018-04-15T23:48:55.157Z,96.20
2018-04-15T23:51:23.434Z,96.14
2018-04-15T23:53:53.470Z,96.19
2018-04-15T23:56:21.774Z,96.08
2018-04-15T23:58:50.324Z,95.81
